sensor_id;sensor_type;location;lat;lon;timestamp;P1;durP1;ratioP1;P2;durP2;ratioP2
18082;SDS011;9168;51.194;6.840;2022-12-10T00:02:10;68.07;;;33.23;;
18082;SDS011;9168;51.194;6.840;2022-12-10T00:04:38;62.43;;;30.27;;
18082;SDS011;9168;51.194;6.840;2022-12-10T00:07:05;68.93;;;30.63;;
18082;SDS011;9168;51.194;6.840;2022-12-10T00:09:32;63.30;;;30.63;;
18082;SDS011;9168;51.194;6.840;2022-12-10T00:11:59;70.37;;;30.50;;
18082;SDS011;9168;51.194;6.840;2022-12-10T00:14:26;57.10;;;29.67;;
18082;SDS011;9168;51.194;6.840;2022-12-10T00:16:53;62.43;;;29.03;;
18082;SDS011;9168;51.194;6.840;2022-12-10T00:19:20;59.17;;;29.80;;
18082;SDS011;9168;51.194;6.840;2022-12-10T00:21:48;60.07;;;29.27;;
18082;SDS011;9168;51.194;6.840;2022-12-10T00:24:15;63.60;;;29.83;;
18082;SDS011;9168;51.194;6.840;2022-12-10T00:26:42;60.57;;;30.50;;
18082;SDS011;9168;51.194;6.840;2022-12-10T00:29:11;66.47;;;28.73;;
18082;SDS011;9168;51.194;6.840;2022-12-10T00:31:38;63.13;;;29.23;;
18082;SDS011;9168;51.194;6.840;2022-12-10T00:34:06;62.50;;;29.03;;
18082;SDS011;9168;51.194;6.840;2022-12-10T00:36:35;57.83;;;28.87;;
18082;SDS011;9168;51.194;6.840;2022-12-10T00:39:05;61.87;;;29.40;;
18082;SDS011;9168;51.194;6.840;2022-12-10T00:41:32;61.23;;;28.83;;
18082;SDS011;9168;51.194;6.840;2022-12-10T00:43:59;62.53;;;28.20;;
18082;SDS011;9168;51.194;6.840;2022-12-10T00:46:26;59.33;;;29.83;;
18082;SDS011;9168;51.194;6.840;2022-12-10T00:48:54;60.23;;;28.90;;
18082;SDS011;9168;51.194;6.840;2022-12-10T00:51:22;62.77;;;29.20;;
18082;SDS011;9168;51.194;6.840;2022-12-10T00:53:51;63.33;;;30.17;;
18082;SDS011;9168;51.194;6.840;2022-12-10T00:56:21;61.97;;;29.43;;
18082;SDS011;9168;51.194;6.840;2022-12-10T00:58:50;62.77;;;28.50;;
18082;SDS011;9168;51.194;6.840;2022-12-10T01:01:19;63.23;;;30.43;;
18082;SDS011;9168;51.194;6.840;2022-12-10T01:03:48;62.70;;;30.00;;
18082;SDS011;9168;51.194;6.840;2022-12-10T01:06:16;64.90;;;30.63;;
18082;SDS011;9168;51.194;6.840;2022-12-10T01:08:46;64.67;;;29.80;;
18082;SDS011;9168;51.194;6.840;2022-12-10T01:11:14;64.00;;;31.20;;
18082;SDS011;9168;51.194;6.840;2022-12-10T01:13:44;66.83;;;30.13;;
18082;SDS011;9168;51.194;6.840;2022-12-10T01:16:12;61.10;;;28.80;;
18082;SDS011;9168;51.194;6.840;2022-12-10T01:18:42;62.37;;;29.77;;
18082;SDS011;9168;51.194;6.840;2022-12-10T01:21:10;59.13;;;28.07;;
18082;SDS011;9168;51.194;6.840;2022-12-10T01:23:38;66.53;;;29.87;;
18082;SDS011;9168;51.194;6.840;2022-12-10T01:26:07;62.40;;;30.13;;
18082;SDS011;9168;51.194;6.840;2022-12-10T01:28:36;72.57;;;30.70;;
18082;SDS011;9168;51.194;6.840;2022-12-10T01:31:07;64.13;;;28.80;;
18082;SDS011;9168;51.194;6.840;2022-12-10T01:33:35;57.00;;;28.90;;
18082;SDS011;9168;51.194;6.840;2022-12-10T01:36:02;60.83;;;27.97;;
18082;SDS011;9168;51.194;6.840;2022-12-10T01:38:31;63.33;;;28.37;;
18082;SDS011;9168;51.194;6.840;2022-12-10T01:40:58;63.13;;;30.33;;
18082;SDS011;9168;51.194;6.840;2022-12-10T01:43:26;64.93;;;29.63;;
18082;SDS011;9168;51.194;6.840;2022-12-10T01:45:53;59.60;;;27.83;;
18082;SDS011;9168;51.194;6.840;2022-12-10T01:48:21;66.73;;;29.03;;
18082;SDS011;9168;51.194;6.840;2022-12-10T01:50:48;64.27;;;27.67;;
18082;SDS011;9168;51.194;6.840;2022-12-10T01:53:15;62.70;;;29.20;;
18082;SDS011;9168;51.194;6.840;2022-12-10T01:55:44;59.27;;;27.40;;
18082;SDS011;9168;51.194;6.840;2022-12-10T01:58:13;63.37;;;28.73;;
18082;SDS011;9168;51.194;6.840;2022-12-10T02:00:44;63.13;;;28.80;;
18082;SDS011;9168;51.194;6.840;2022-12-10T02:03:17;61.90;;;29.57;;
18082;SDS011;9168;51.194;6.840;2022-12-10T02:05:54;65.93;;;28.00;;
18082;SDS011;9168;51.194;6.840;2022-12-10T02:08:31;64.10;;;28.20;;
18082;SDS011;9168;51.194;6.840;2022-12-10T02:11:08;64.33;;;29.17;;
18082;SDS011;9168;51.194;6.840;2022-12-10T02:13:42;66.50;;;27.67;;
18082;SDS011;9168;51.194;6.840;2022-12-10T02:16:13;62.50;;;27.97;;
18082;SDS011;9168;51.194;6.840;2022-12-10T02:18:45;62.40;;;29.33;;
18082;SDS011;9168;51.194;6.840;2022-12-10T02:21:19;67.50;;;30.70;;
18082;SDS011;9168;51.194;6.840;2022-12-10T02:23:51;66.87;;;27.37;;
18082;SDS011;9168;51.194;6.840;2022-12-10T02:26:23;60.77;;;28.60;;
18082;SDS011;9168;51.194;6.840;2022-12-10T02:29:03;58.03;;;26.93;;
18082;SDS011;9168;51.194;6.840;2022-12-10T02:31:36;60.67;;;27.03;;
18082;SDS011;9168;51.194;6.840;2022-12-10T02:34:06;60.33;;;28.57;;
18082;SDS011;9168;51.194;6.840;2022-12-10T02:36:35;58.20;;;28.37;;
18082;SDS011;9168;51.194;6.840;2022-12-10T02:39:24;62.33;;;27.93;;
18082;SDS011;9168;51.194;6.840;2022-12-10T02:41:54;61.00;;;28.70;;
18082;SDS011;9168;51.194;6.840;2022-12-10T02:44:24;61.50;;;29.57;;
18082;SDS011;9168;51.194;6.840;2022-12-10T02:46:52;59.23;;;28.77;;
18082;SDS011;9168;51.194;6.840;2022-12-10T02:49:21;63.97;;;29.40;;
18082;SDS011;9168;51.194;6.840;2022-12-10T02:51:49;65.93;;;28.50;;
18082;SDS011;9168;51.194;6.840;2022-12-10T02:54:33;60.43;;;28.90;;
18082;SDS011;9168;51.194;6.840;2022-12-10T02:57:05;61.90;;;28.50;;
18082;SDS011;9168;51.194;6.840;2022-12-10T02:59:45;60.70;;;28.43;;
18082;SDS011;9168;51.194;6.840;2022-12-10T03:02:19;62.87;;;30.00;;
18082;SDS011;9168;51.194;6.840;2022-12-10T03:04:56;66.67;;;30.77;;
18082;SDS011;9168;51.194;6.840;2022-12-10T03:07:27;63.87;;;28.17;;
18082;SDS011;9168;51.194;6.840;2022-12-10T03:10:01;60.70;;;28.87;;
18082;SDS011;9168;51.194;6.840;2022-12-10T03:12:31;62.27;;;28.73;;
18082;SDS011;9168;51.194;6.840;2022-12-10T03:15:05;67.90;;;28.30;;
18082;SDS011;9168;51.194;6.840;2022-12-10T03:17:34;61.93;;;29.50;;
18082;SDS011;9168;51.194;6.840;2022-12-10T03:20:04;69.57;;;28.23;;
18082;SDS011;9168;51.194;6.840;2022-12-10T03:22:34;58.67;;;27.90;;
18082;SDS011;9168;51.194;6.840;2022-12-10T03:25:03;60.10;;;28.43;;
18082;SDS011;9168;51.194;6.840;2022-12-10T03:27:31;61.33;;;28.33;;
18082;SDS011;9168;51.194;6.840;2022-12-10T03:29:59;60.97;;;28.70;;
18082;SDS011;9168;51.194;6.840;2022-12-10T03:32:28;65.63;;;29.93;;
18082;SDS011;9168;51.194;6.840;2022-12-10T03:34:56;69.57;;;30.97;;
18082;SDS011;9168;51.194;6.840;2022-12-10T03:37:26;60.97;;;29.40;;
18082;SDS011;9168;51.194;6.840;2022-12-10T03:39:54;69.00;;;31.50;;
18082;SDS011;9168;51.194;6.840;2022-12-10T03:42:21;68.40;;;30.73;;
18082;SDS011;9168;51.194;6.840;2022-12-10T03:44:49;66.17;;;31.70;;
18082;SDS011;9168;51.194;6.840;2022-12-10T03:47:17;60.57;;;29.90;;
18082;SDS011;9168;51.194;6.840;2022-12-10T03:49:46;59.30;;;26.70;;
18082;SDS011;9168;51.194;6.840;2022-12-10T03:52:13;65.37;;;29.57;;
18082;SDS011;9168;51.194;6.840;2022-12-10T03:54:40;58.93;;;28.53;;
18082;SDS011;9168;51.194;6.840;2022-12-10T03:57:07;64.63;;;29.10;;
18082;SDS011;9168;51.194;6.840;2022-12-10T03:59:34;68.10;;;32.07;;
18082;SDS011;9168;51.194;6.840;2022-12-10T04:02:01;67.80;;;30.97;;
18082;SDS011;9168;51.194;6.840;2022-12-10T04:04:28;67.10;;;31.10;;
18082;SDS011;9168;51.194;6.840;2022-12-10T04:06:56;67.53;;;30.70;;
18082;SDS011;9168;51.194;6.840;2022-12-10T04:09:23;64.83;;;30.37;;
18082;SDS011;9168;51.194;6.840;2022-12-10T04:11:54;67.67;;;31.13;;
18082;SDS011;9168;51.194;6.840;2022-12-10T04:14:22;69.87;;;31.27;;
18082;SDS011;9168;51.194;6.840;2022-12-10T04:17:06;82.30;;;33.87;;
18082;SDS011;9168;51.194;6.840;2022-12-10T04:19:33;71.50;;;32.50;;
18082;SDS011;9168;51.194;6.840;2022-12-10T04:22:02;71.07;;;31.77;;
18082;SDS011;9168;51.194;6.840;2022-12-10T04:24:47;67.60;;;31.17;;
18082;SDS011;9168;51.194;6.840;2022-12-10T04:27:46;69.83;;;32.30;;
18082;SDS011;9168;51.194;6.840;2022-12-10T04:30:13;72.83;;;31.60;;
18082;SDS011;9168;51.194;6.840;2022-12-10T04:32:40;69.90;;;32.33;;
18082;SDS011;9168;51.194;6.840;2022-12-10T04:35:07;74.03;;;32.23;;
18082;SDS011;9168;51.194;6.840;2022-12-10T04:37:36;74.13;;;33.90;;
18082;SDS011;9168;51.194;6.840;2022-12-10T04:40:03;71.00;;;32.50;;
18082;SDS011;9168;51.194;6.840;2022-12-10T04:42:31;75.00;;;34.27;;
18082;SDS011;9168;51.194;6.840;2022-12-10T04:44:58;79.77;;;33.57;;
18082;SDS011;9168;51.194;6.840;2022-12-10T04:47:25;69.37;;;31.80;;
18082;SDS011;9168;51.194;6.840;2022-12-10T04:49:52;75.47;;;33.43;;
18082;SDS011;9168;51.194;6.840;2022-12-10T04:52:19;77.53;;;33.93;;
18082;SDS011;9168;51.194;6.840;2022-12-10T04:54:47;71.40;;;31.60;;
18082;SDS011;9168;51.194;6.840;2022-12-10T04:57:14;67.87;;;32.60;;
18082;SDS011;9168;51.194;6.840;2022-12-10T04:59:41;70.70;;;31.93;;
18082;SDS011;9168;51.194;6.840;2022-12-10T05:02:08;73.90;;;32.17;;
18082;SDS011;9168;51.194;6.840;2022-12-10T05:04:35;75.97;;;32.60;;
18082;SDS011;9168;51.194;6.840;2022-12-10T05:07:02;70.97;;;31.60;;
18082;SDS011;9168;51.194;6.840;2022-12-10T05:09:29;70.97;;;31.13;;
18082;SDS011;9168;51.194;6.840;2022-12-10T05:11:57;66.23;;;31.23;;
18082;SDS011;9168;51.194;6.840;2022-12-10T05:14:25;72.93;;;32.77;;
18082;SDS011;9168;51.194;6.840;2022-12-10T05:16:52;67.77;;;31.00;;
18082;SDS011;9168;51.194;6.840;2022-12-10T05:19:19;69.37;;;31.80;;
18082;SDS011;9168;51.194;6.840;2022-12-10T05:21:47;67.53;;;30.70;;
18082;SDS011;9168;51.194;6.840;2022-12-10T05:24:31;69.67;;;31.17;;
18082;SDS011;9168;51.194;6.840;2022-12-10T05:27:00;68.63;;;31.47;;
18082;SDS011;9168;51.194;6.840;2022-12-10T05:29:27;63.10;;;29.47;;
18082;SDS011;9168;51.194;6.840;2022-12-10T05:31:54;69.00;;;31.17;;
18082;SDS011;9168;51.194;6.840;2022-12-10T05:34:21;67.07;;;30.20;;
18082;SDS011;9168;51.194;6.840;2022-12-10T05:36:48;65.77;;;30.53;;
18082;SDS011;9168;51.194;6.840;2022-12-10T05:39:15;67.33;;;31.67;;
18082;SDS011;9168;51.194;6.840;2022-12-10T05:41:42;68.43;;;30.33;;
18082;SDS011;9168;51.194;6.840;2022-12-10T05:44:11;69.30;;;30.10;;
18082;SDS011;9168;51.194;6.840;2022-12-10T05:46:39;68.83;;;30.20;;
18082;SDS011;9168;51.194;6.840;2022-12-10T05:49:06;67.23;;;30.00;;
18082;SDS011;9168;51.194;6.840;2022-12-10T05:51:34;63.63;;;29.13;;
18082;SDS011;9168;51.194;6.840;2022-12-10T05:54:04;69.90;;;31.13;;
18082;SDS011;9168;51.194;6.840;2022-12-10T05:56:32;76.77;;;31.73;;
18082;SDS011;9168;51.194;6.840;2022-12-10T05:59:01;62.83;;;29.23;;
18082;SDS011;9168;51.194;6.840;2022-12-10T06:01:31;70.03;;;29.87;;
18082;SDS011;9168;51.194;6.840;2022-12-10T06:03:59;66.27;;;30.20;;
18082;SDS011;9168;51.194;6.840;2022-12-10T06:06:27;69.30;;;31.27;;
18082;SDS011;9168;51.194;6.840;2022-12-10T06:08:56;66.03;;;30.30;;
18082;SDS011;9168;51.194;6.840;2022-12-10T06:11:24;64.43;;;30.23;;
18082;SDS011;9168;51.194;6.840;2022-12-10T06:13:52;73.37;;;30.43;;
18082;SDS011;9168;51.194;6.840;2022-12-10T06:16:19;71.13;;;31.10;;
18082;SDS011;9168;51.194;6.840;2022-12-10T06:18:48;69.40;;;31.07;;
18082;SDS011;9168;51.194;6.840;2022-12-10T06:21:15;75.90;;;32.17;;
18082;SDS011;9168;51.194;6.840;2022-12-10T06:23:44;72.97;;;32.93;;
18082;SDS011;9168;51.194;6.840;2022-12-10T06:26:12;71.47;;;30.83;;
18082;SDS011;9168;51.194;6.840;2022-12-10T06:28:40;79.00;;;32.53;;
18082;SDS011;9168;51.194;6.840;2022-12-10T06:31:08;74.47;;;33.37;;
18082;SDS011;9168;51.194;6.840;2022-12-10T06:33:35;78.10;;;34.60;;
18082;SDS011;9168;51.194;6.840;2022-12-10T06:36:04;89.87;;;35.50;;
18082;SDS011;9168;51.194;6.840;2022-12-10T06:38:32;82.63;;;35.67;;
18082;SDS011;9168;51.194;6.840;2022-12-10T06:41:00;87.27;;;37.57;;
18082;SDS011;9168;51.194;6.840;2022-12-10T06:43:29;86.97;;;37.13;;
18082;SDS011;9168;51.194;6.840;2022-12-10T06:45:56;78.50;;;35.30;;
18082;SDS011;9168;51.194;6.840;2022-12-10T06:48:23;83.17;;;36.77;;
18082;SDS011;9168;51.194;6.840;2022-12-10T06:50:50;88.87;;;38.00;;
18082;SDS011;9168;51.194;6.840;2022-12-10T06:53:18;85.67;;;39.60;;
18082;SDS011;9168;51.194;6.840;2022-12-10T06:55:46;86.60;;;38.93;;
18082;SDS011;9168;51.194;6.840;2022-12-10T06:58:12;88.47;;;38.10;;
18082;SDS011;9168;51.194;6.840;2022-12-10T07:00:39;85.27;;;38.03;;
18082;SDS011;9168;51.194;6.840;2022-12-10T07:03:06;94.17;;;41.43;;
18082;SDS011;9168;51.194;6.840;2022-12-10T07:05:33;94.70;;;40.80;;
18082;SDS011;9168;51.194;6.840;2022-12-10T07:08:01;91.97;;;41.00;;
18082;SDS011;9168;51.194;6.840;2022-12-10T07:10:29;99.33;;;41.90;;
18082;SDS011;9168;51.194;6.840;2022-12-10T07:12:56;100.53;;;42.63;;
18082;SDS011;9168;51.194;6.840;2022-12-10T07:15:23;94.97;;;42.60;;
18082;SDS011;9168;51.194;6.840;2022-12-10T07:17:52;102.50;;;42.33;;
18082;SDS011;9168;51.194;6.840;2022-12-10T07:20:19;99.40;;;41.27;;
18082;SDS011;9168;51.194;6.840;2022-12-10T07:22:46;101.23;;;44.20;;
18082;SDS011;9168;51.194;6.840;2022-12-10T07:25:12;103.60;;;42.67;;
18082;SDS011;9168;51.194;6.840;2022-12-10T07:27:41;100.47;;;41.20;;
18082;SDS011;9168;51.194;6.840;2022-12-10T07:30:08;101.80;;;43.37;;
18082;SDS011;9168;51.194;6.840;2022-12-10T07:32:36;106.40;;;42.13;;
18082;SDS011;9168;51.194;6.840;2022-12-10T07:35:20;94.40;;;40.90;;
18082;SDS011;9168;51.194;6.840;2022-12-10T07:37:47;100.90;;;41.67;;
18082;SDS011;9168;51.194;6.840;2022-12-10T07:40:14;94.43;;;40.87;;
18082;SDS011;9168;51.194;6.840;2022-12-10T07:42:42;99.07;;;40.90;;
18082;SDS011;9168;51.194;6.840;2022-12-10T07:45:14;104.47;;;42.63;;
18082;SDS011;9168;51.194;6.840;2022-12-10T07:47:41;103.33;;;42.03;;
18082;SDS011;9168;51.194;6.840;2022-12-10T07:50:08;101.33;;;41.43;;
18082;SDS011;9168;51.194;6.840;2022-12-10T07:52:35;108.93;;;41.63;;
18082;SDS011;9168;51.194;6.840;2022-12-10T07:55:02;101.50;;;42.50;;
18082;SDS011;9168;51.194;6.840;2022-12-10T07:57:30;110.80;;;42.37;;
18082;SDS011;9168;51.194;6.840;2022-12-10T07:59:59;110.27;;;42.63;;
18082;SDS011;9168;51.194;6.840;2022-12-10T08:02:26;106.27;;;42.83;;
18082;SDS011;9168;51.194;6.840;2022-12-10T08:04:53;104.60;;;42.67;;
18082;SDS011;9168;51.194;6.840;2022-12-10T08:07:20;102.33;;;40.57;;
18082;SDS011;9168;51.194;6.840;2022-12-10T08:09:46;106.03;;;43.50;;
18082;SDS011;9168;51.194;6.840;2022-12-10T08:12:13;115.97;;;43.10;;
18082;SDS011;9168;51.194;6.840;2022-12-10T08:14:41;113.30;;;43.77;;
18082;SDS011;9168;51.194;6.840;2022-12-10T08:17:09;117.10;;;44.23;;
18082;SDS011;9168;51.194;6.840;2022-12-10T08:19:36;114.87;;;44.87;;
18082;SDS011;9168;51.194;6.840;2022-12-10T08:22:03;117.50;;;42.97;;
18082;SDS011;9168;51.194;6.840;2022-12-10T08:24:30;105.97;;;42.67;;
18082;SDS011;9168;51.194;6.840;2022-12-10T08:26:57;102.83;;;41.90;;
18082;SDS011;9168;51.194;6.840;2022-12-10T08:29:23;103.90;;;42.90;;
18082;SDS011;9168;51.194;6.840;2022-12-10T08:31:50;108.87;;;43.07;;
18082;SDS011;9168;51.194;6.840;2022-12-10T08:34:19;112.00;;;42.70;;
18082;SDS011;9168;51.194;6.840;2022-12-10T08:36:46;113.30;;;44.50;;
18082;SDS011;9168;51.194;6.840;2022-12-10T08:39:12;113.10;;;45.20;;
18082;SDS011;9168;51.194;6.840;2022-12-10T08:41:40;112.07;;;44.13;;
18082;SDS011;9168;51.194;6.840;2022-12-10T08:44:07;100.27;;;41.03;;
18082;SDS011;9168;51.194;6.840;2022-12-10T08:46:34;95.47;;;39.67;;
18082;SDS011;9168;51.194;6.840;2022-12-10T08:49:01;95.90;;;37.77;;
18082;SDS011;9168;51.194;6.840;2022-12-10T08:51:29;93.53;;;39.20;;
18082;SDS011;9168;51.194;6.840;2022-12-10T08:53:56;105.07;;;41.27;;
18082;SDS011;9168;51.194;6.840;2022-12-10T08:56:23;106.33;;;42.63;;
18082;SDS011;9168;51.194;6.840;2022-12-10T08:58:50;107.63;;;41.13;;
18082;SDS011;9168;51.194;6.840;2022-12-10T09:01:17;95.07;;;39.33;;
18082;SDS011;9168;51.194;6.840;2022-12-10T09:03:44;101.87;;;40.03;;
18082;SDS011;9168;51.194;6.840;2022-12-10T09:06:13;104.30;;;39.53;;
18082;SDS011;9168;51.194;6.840;2022-12-10T09:08:42;101.43;;;40.33;;
18082;SDS011;9168;51.194;6.840;2022-12-10T09:11:09;98.63;;;38.80;;
18082;SDS011;9168;51.194;6.840;2022-12-10T09:13:38;91.53;;;37.17;;
18082;SDS011;9168;51.194;6.840;2022-12-10T09:16:05;95.93;;;36.90;;
18082;SDS011;9168;51.194;6.840;2022-12-10T09:18:35;89.17;;;35.87;;
18082;SDS011;9168;51.194;6.840;2022-12-10T09:21:04;95.20;;;38.33;;
18082;SDS011;9168;51.194;6.840;2022-12-10T09:23:32;99.87;;;39.40;;
18082;SDS011;9168;51.194;6.840;2022-12-10T09:26:01;98.63;;;39.93;;
18082;SDS011;9168;51.194;6.840;2022-12-10T09:28:33;96.90;;;37.83;;
18082;SDS011;9168;51.194;6.840;2022-12-10T09:31:00;104.83;;;39.67;;
18082;SDS011;9168;51.194;6.840;2022-12-10T09:33:28;91.13;;;37.70;;
18082;SDS011;9168;51.194;6.840;2022-12-10T09:35:58;105.07;;;39.23;;
18082;SDS011;9168;51.194;6.840;2022-12-10T09:38:25;92.50;;;36.27;;
18082;SDS011;9168;51.194;6.840;2022-12-10T09:40:55;95.63;;;36.83;;
18082;SDS011;9168;51.194;6.840;2022-12-10T09:43:28;94.30;;;38.73;;
18082;SDS011;9168;51.194;6.840;2022-12-10T09:46:09;101.63;;;40.57;;
18082;SDS011;9168;51.194;6.840;2022-12-10T09:48:47;99.77;;;39.43;;
18082;SDS011;9168;51.194;6.840;2022-12-10T09:51:23;106.63;;;40.03;;
18082;SDS011;9168;51.194;6.840;2022-12-10T09:53:51;99.73;;;37.63;;
18082;SDS011;9168;51.194;6.840;2022-12-10T09:56:24;110.33;;;41.50;;
18082;SDS011;9168;51.194;6.840;2022-12-10T09:58:56;100.60;;;39.33;;
18082;SDS011;9168;51.194;6.840;2022-12-10T10:01:27;107.90;;;42.60;;
18082;SDS011;9168;51.194;6.840;2022-12-10T10:03:55;106.60;;;40.07;;
18082;SDS011;9168;51.194;6.840;2022-12-10T10:06:22;94.20;;;37.90;;
18082;SDS011;9168;51.194;6.840;2022-12-10T10:08:52;86.13;;;34.80;;
18082;SDS011;9168;51.194;6.840;2022-12-10T10:11:22;82.80;;;33.07;;
18082;SDS011;9168;51.194;6.840;2022-12-10T10:13:51;83.87;;;33.97;;
18082;SDS011;9168;51.194;6.840;2022-12-10T10:16:24;77.23;;;31.43;;
18082;SDS011;9168;51.194;6.840;2022-12-10T10:18:54;79.60;;;32.77;;
18082;SDS011;9168;51.194;6.840;2022-12-10T10:21:24;83.13;;;33.53;;
18082;SDS011;9168;51.194;6.840;2022-12-10T10:23:54;85.77;;;33.07;;
18082;SDS011;9168;51.194;6.840;2022-12-10T10:26:23;81.50;;;32.83;;
18082;SDS011;9168;51.194;6.840;2022-12-10T10:28:52;88.43;;;33.77;;
18082;SDS011;9168;51.194;6.840;2022-12-10T10:31:26;88.97;;;34.13;;
18082;SDS011;9168;51.194;6.840;2022-12-10T10:33:55;86.63;;;34.77;;
18082;SDS011;9168;51.194;6.840;2022-12-10T10:36:24;87.07;;;31.93;;
18082;SDS011;9168;51.194;6.840;2022-12-10T10:38:52;82.10;;;31.23;;
18082;SDS011;9168;51.194;6.840;2022-12-10T10:41:19;68.00;;;28.93;;
18082;SDS011;9168;51.194;6.840;2022-12-10T10:43:46;77.63;;;30.77;;
18082;SDS011;9168;51.194;6.840;2022-12-10T10:46:16;79.13;;;29.97;;
18082;SDS011;9168;51.194;6.840;2022-12-10T10:48:51;71.63;;;30.13;;
18082;SDS011;9168;51.194;6.840;2022-12-10T10:51:18;80.93;;;32.17;;
18082;SDS011;9168;51.194;6.840;2022-12-10T10:53:48;75.20;;;30.80;;
18082;SDS011;9168;51.194;6.840;2022-12-10T10:56:17;79.57;;;32.50;;
18082;SDS011;9168;51.194;6.840;2022-12-10T10:58:50;91.50;;;33.67;;
18082;SDS011;9168;51.194;6.840;2022-12-10T11:01:21;86.80;;;34.37;;
18082;SDS011;9168;51.194;6.840;2022-12-10T11:03:53;83.70;;;33.20;;
18082;SDS011;9168;51.194;6.840;2022-12-10T11:06:21;89.77;;;35.13;;
18082;SDS011;9168;51.194;6.840;2022-12-10T11:08:56;83.93;;;33.03;;
18082;SDS011;9168;51.194;6.840;2022-12-10T11:11:25;80.87;;;33.73;;
18082;SDS011;9168;51.194;6.840;2022-12-10T11:14:12;85.20;;;33.93;;
18082;SDS011;9168;51.194;6.840;2022-12-10T11:16:40;81.00;;;34.23;;
18082;SDS011;9168;51.194;6.840;2022-12-10T11:19:16;89.87;;;35.77;;
18082;SDS011;9168;51.194;6.840;2022-12-10T11:21:46;82.57;;;33.60;;
18082;SDS011;9168;51.194;6.840;2022-12-10T11:24:16;86.37;;;34.60;;
18082;SDS011;9168;51.194;6.840;2022-12-10T11:26:48;81.23;;;33.80;;
18082;SDS011;9168;51.194;6.840;2022-12-10T11:29:32;80.30;;;33.80;;
18082;SDS011;9168;51.194;6.840;2022-12-10T11:32:14;78.57;;;30.20;;
18082;SDS011;9168;51.194;6.840;2022-12-10T11:34:55;72.33;;;28.30;;
18082;SDS011;9168;51.194;6.840;2022-12-10T11:37:37;68.13;;;29.70;;
18082;SDS011;9168;51.194;6.840;2022-12-10T11:40:12;70.03;;;30.07;;
18082;SDS011;9168;51.194;6.840;2022-12-10T11:42:52;60.90;;;26.43;;
18082;SDS011;9168;51.194;6.840;2022-12-10T11:45:26;58.27;;;24.40;;
18082;SDS011;9168;51.194;6.840;2022-12-10T11:48:06;56.80;;;23.63;;
18082;SDS011;9168;51.194;6.840;2022-12-10T11:50:47;63.23;;;25.57;;
18082;SDS011;9168;51.194;6.840;2022-12-10T11:53:26;69.37;;;26.63;;
18082;SDS011;9168;51.194;6.840;2022-12-10T11:56:06;64.77;;;25.97;;
18082;SDS011;9168;51.194;6.840;2022-12-10T11:58:47;60.97;;;27.27;;
18082;SDS011;9168;51.194;6.840;2022-12-10T12:01:27;62.10;;;27.13;;
18082;SDS011;9168;51.194;6.840;2022-12-10T12:04:07;67.40;;;27.70;;
18082;SDS011;9168;51.194;6.840;2022-12-10T12:06:54;65.97;;;29.30;;
18082;SDS011;9168;51.194;6.840;2022-12-10T12:09:36;69.73;;;28.97;;
18082;SDS011;9168;51.194;6.840;2022-12-10T12:12:12;73.97;;;28.70;;
18082;SDS011;9168;51.194;6.840;2022-12-10T12:14:50;77.50;;;31.83;;
18082;SDS011;9168;51.194;6.840;2022-12-10T12:17:22;75.27;;;32.37;;
18082;SDS011;9168;51.194;6.840;2022-12-10T12:19:53;75.83;;;31.60;;
18082;SDS011;9168;51.194;6.840;2022-12-10T12:22:25;77.10;;;31.63;;
18082;SDS011;9168;51.194;6.840;2022-12-10T12:24:55;67.77;;;31.40;;
18082;SDS011;9168;51.194;6.840;2022-12-10T12:27:27;73.90;;;30.63;;
18082;SDS011;9168;51.194;6.840;2022-12-10T12:30:04;71.90;;;29.63;;
18082;SDS011;9168;51.194;6.840;2022-12-10T12:32:36;72.67;;;30.03;;
18082;SDS011;9168;51.194;6.840;2022-12-10T12:35:12;72.23;;;30.30;;
18082;SDS011;9168;51.194;6.840;2022-12-10T12:37:45;70.13;;;31.03;;
18082;SDS011;9168;51.194;6.840;2022-12-10T12:40:20;77.77;;;31.10;;
18082;SDS011;9168;51.194;6.840;2022-12-10T12:42:54;72.53;;;30.97;;
18082;SDS011;9168;51.194;6.840;2022-12-10T12:45:30;71.87;;;29.90;;
18082;SDS011;9168;51.194;6.840;2022-12-10T12:48:01;78.97;;;30.37;;
18082;SDS011;9168;51.194;6.840;2022-12-10T12:50:42;79.10;;;31.10;;
18082;SDS011;9168;51.194;6.840;2022-12-10T12:53:13;67.53;;;31.00;;
18082;SDS011;9168;51.194;6.840;2022-12-10T12:55:44;78.07;;;32.37;;
18082;SDS011;9168;51.194;6.840;2022-12-10T12:58:20;69.83;;;31.63;;
18082;SDS011;9168;51.194;6.840;2022-12-10T13:00:54;79.47;;;32.83;;
18082;SDS011;9168;51.194;6.840;2022-12-10T13:03:29;80.67;;;31.53;;
18082;SDS011;9168;51.194;6.840;2022-12-10T13:09:05;74.53;;;31.23;;
18082;SDS011;9168;51.194;6.840;2022-12-10T13:15:00;72.90;;;30.77;;
18082;SDS011;9168;51.194;6.840;2022-12-10T13:17:31;73.20;;;30.40;;
18082;SDS011;9168;51.194;6.840;2022-12-10T13:22:55;77.10;;;30.90;;
18082;SDS011;9168;51.194;6.840;2022-12-10T13:25:38;70.93;;;31.07;;
18082;SDS011;9168;51.194;6.840;2022-12-10T13:28:17;68.43;;;30.73;;
18082;SDS011;9168;51.194;6.840;2022-12-10T13:33:45;71.53;;;29.70;;
18082;SDS011;9168;51.194;6.840;2022-12-10T13:36:19;73.53;;;31.67;;
18082;SDS011;9168;51.194;6.840;2022-12-10T13:39:13;69.13;;;28.27;;
18082;SDS011;9168;51.194;6.840;2022-12-10T13:45:23;60.23;;;27.23;;
18082;SDS011;9168;51.194;6.840;2022-12-10T13:50:59;65.80;;;28.97;;
18082;SDS011;9168;51.194;6.840;2022-12-10T13:53:49;69.90;;;30.97;;
18082;SDS011;9168;51.194;6.840;2022-12-10T13:56:26;69.27;;;32.33;;
18082;SDS011;9168;51.194;6.840;2022-12-10T13:58:58;75.33;;;33.07;;
18082;SDS011;9168;51.194;6.840;2022-12-10T14:01:39;78.50;;;31.37;;
18082;SDS011;9168;51.194;6.840;2022-12-10T14:07:12;67.43;;;30.27;;
18082;SDS011;9168;51.194;6.840;2022-12-10T14:09:44;71.33;;;31.57;;
18082;SDS011;9168;51.194;6.840;2022-12-10T14:12:14;72.53;;;30.43;;
18082;SDS011;9168;51.194;6.840;2022-12-10T14:14:46;70.13;;;31.50;;
18082;SDS011;9168;51.194;6.840;2022-12-10T14:17:24;73.70;;;31.07;;
18082;SDS011;9168;51.194;6.840;2022-12-10T14:19:58;77.33;;;33.23;;
18082;SDS011;9168;51.194;6.840;2022-12-10T14:22:29;84.80;;;33.13;;
18082;SDS011;9168;51.194;6.840;2022-12-10T14:25:00;80.30;;;33.53;;
18082;SDS011;9168;51.194;6.840;2022-12-10T14:27:28;87.63;;;33.37;;
18082;SDS011;9168;51.194;6.840;2022-12-10T14:29:58;79.03;;;34.33;;
18082;SDS011;9168;51.194;6.840;2022-12-10T14:32:29;85.37;;;34.93;;
18082;SDS011;9168;51.194;6.840;2022-12-10T14:34:59;83.00;;;34.20;;
18082;SDS011;9168;51.194;6.840;2022-12-10T14:37:27;71.73;;;31.77;;
18082;SDS011;9168;51.194;6.840;2022-12-10T14:39:57;69.83;;;32.03;;
18082;SDS011;9168;51.194;6.840;2022-12-10T14:42:24;76.73;;;33.07;;
18082;SDS011;9168;51.194;6.840;2022-12-10T14:44:53;75.57;;;30.57;;
18082;SDS011;9168;51.194;6.840;2022-12-10T14:47:23;74.77;;;32.27;;
18082;SDS011;9168;51.194;6.840;2022-12-10T14:49:52;82.10;;;33.67;;
18082;SDS011;9168;51.194;6.840;2022-12-10T14:52:22;75.77;;;31.70;;
18082;SDS011;9168;51.194;6.840;2022-12-10T14:54:51;73.77;;;32.87;;
18082;SDS011;9168;51.194;6.840;2022-12-10T14:57:20;66.87;;;30.03;;
18082;SDS011;9168;51.194;6.840;2022-12-10T14:59:52;72.07;;;32.43;;
18082;SDS011;9168;51.194;6.840;2022-12-10T15:02:26;69.90;;;32.10;;
18082;SDS011;9168;51.194;6.840;2022-12-10T15:04:56;89.17;;;38.33;;
18082;SDS011;9168;51.194;6.840;2022-12-10T15:07:25;77.77;;;33.43;;
18082;SDS011;9168;51.194;6.840;2022-12-10T15:09:53;84.43;;;33.37;;
18082;SDS011;9168;51.194;6.840;2022-12-10T15:12:28;77.43;;;32.40;;
18082;SDS011;9168;51.194;6.840;2022-12-10T15:14:59;72.30;;;33.50;;